sensor_id;sensor_type;location;lat;lon;timestamp;P1;durP1;ratioP1;P2;durP2;ratioP2
5137;SDS011;53959;53.626;11.410;2023-07-29T00:01:49;5.77;;;5.27;;
5137;SDS011;53959;53.626;11.410;2023-07-29T00:04:14;6.30;;;5.70;;
5137;SDS011;53959;53.626;11.410;2023-07-29T00:06:40;8.63;;;7.67;;
5137;SDS011;53959;53.626;11.410;2023-07-29T00:09:05;7.67;;;6.60;;
5137;SDS011;53959;53.626;11.410;2023-07-29T00:11:31;6.80;;;6.10;;
5137;SDS011;53959;53.626;11.410;2023-07-29T00:13:58;6.47;;;5.97;;
5137;SDS011;53959;53.626;11.410;2023-07-29T00:16:27;6.30;;;5.80;;
5137;SDS011;53959;53.626;11.410;2023-07-29T00:18:52;6.67;;;5.90;;
5137;SDS011;53959;53.626;11.410;2023-07-29T00:21:17;12.03;;;6.23;;
5137;SDS011;53959;53.626;11.410;2023-07-29T00:23:43;6.07;;;5.47;;
5137;SDS011;53959;53.626;11.410;2023-07-29T00:26:08;9.23;;;5.67;;
5137;SDS011;53959;53.626;11.410;2023-07-29T00:28:33;5.50;;;5.10;;
5137;SDS011;53959;53.626;11.410;2023-07-29T00:30:59;8.03;;;5.27;;
5137;SDS011;53959;53.626;11.410;2023-07-29T00:33:25;13.63;;;5.57;;
5137;SDS011;53959;53.626;11.410;2023-07-29T00:35:52;14.20;;;5.53;;
5137;SDS011;53959;53.626;11.410;2023-07-29T00:38:17;7.47;;;6.83;;
5137;SDS011;53959;53.626;11.410;2023-07-29T00:40:43;6.20;;;5.70;;
5137;SDS011;53959;53.626;11.410;2023-07-29T00:43:08;5.93;;;5.40;;
5137;SDS011;53959;53.626;11.410;2023-07-29T00:45:34;6.07;;;5.67;;
5137;SDS011;53959;53.626;11.410;2023-07-29T00:48:01;6.13;;;5.53;;
5137;SDS011;53959;53.626;11.410;2023-07-29T00:50:28;6.13;;;5.73;;
5137;SDS011;53959;53.626;11.410;2023-07-29T00:52:58;5.93;;;5.40;;
5137;SDS011;53959;53.626;11.410;2023-07-29T00:55:28;5.83;;;5.43;;
5137;SDS011;53959;53.626;11.410;2023-07-29T00:57:54;6.00;;;5.50;;
5137;SDS011;53959;53.626;11.410;2023-07-29T01:00:20;5.67;;;5.27;;
5137;SDS011;53959;53.626;11.410;2023-07-29T01:02:46;5.60;;;5.10;;
5137;SDS011;53959;53.626;11.410;2023-07-29T01:05:12;5.87;;;5.40;;
5137;SDS011;53959;53.626;11.410;2023-07-29T01:07:43;4.43;;;4.13;;
5137;SDS011;53959;53.626;11.410;2023-07-29T01:10:24;5.87;;;5.17;;
5137;SDS011;53959;53.626;11.410;2023-07-29T01:18:26;5.57;;;5.07;;
5137;SDS011;53959;53.626;11.410;2023-07-29T01:20:58;4.90;;;4.50;;
5137;SDS011;53959;53.626;11.410;2023-07-29T01:23:31;5.73;;;4.97;;
5137;SDS011;53959;53.626;11.410;2023-07-29T01:25:58;5.60;;;5.10;;
5137;SDS011;53959;53.626;11.410;2023-07-29T01:28:24;6.27;;;5.80;;
5137;SDS011;53959;53.626;11.410;2023-07-29T01:30:51;5.50;;;5.00;;
5137;SDS011;53959;53.626;11.410;2023-07-29T01:33:25;6.53;;;5.97;;
5137;SDS011;53959;53.626;11.410;2023-07-29T01:36:15;6.67;;;5.97;;
5137;SDS011;53959;53.626;11.410;2023-07-29T01:38:45;5.97;;;5.47;;
5137;SDS011;53959;53.626;11.410;2023-07-29T01:41:13;5.03;;;4.73;;
5137;SDS011;53959;53.626;11.410;2023-07-29T01:43:39;4.93;;;4.63;;
5137;SDS011;53959;53.626;11.410;2023-07-29T01:46:09;5.60;;;5.20;;
5137;SDS011;53959;53.626;11.410;2023-07-29T01:48:37;5.40;;;5.00;;
5137;SDS011;53959;53.626;11.410;2023-07-29T01:51:03;6.23;;;5.63;;
5137;SDS011;53959;53.626;11.410;2023-07-29T01:53:29;6.40;;;6.00;;
5137;SDS011;53959;53.626;11.410;2023-07-29T01:55:54;5.60;;;5.20;;
5137;SDS011;53959;53.626;11.410;2023-07-29T01:58:19;6.77;;;5.30;;
5137;SDS011;53959;53.626;11.410;2023-07-29T02:00:46;5.97;;;5.53;;
5137;SDS011;53959;53.626;11.410;2023-07-29T02:03:12;7.60;;;6.10;;
5137;SDS011;53959;53.626;11.410;2023-07-29T02:05:38;9.33;;;6.30;;
5137;SDS011;53959;53.626;11.410;2023-07-29T02:08:03;8.67;;;5.93;;
5137;SDS011;53959;53.626;11.410;2023-07-29T02:10:28;8.27;;;6.20;;
5137;SDS011;53959;53.626;11.410;2023-07-29T02:12:54;6.50;;;6.00;;
5137;SDS011;53959;53.626;11.410;2023-07-29T02:15:19;7.13;;;6.43;;
5137;SDS011;53959;53.626;11.410;2023-07-29T02:17:45;8.10;;;7.40;;
5137;SDS011;53959;53.626;11.410;2023-07-29T02:20:10;9.23;;;7.20;;
5137;SDS011;53959;53.626;11.410;2023-07-29T02:22:36;7.43;;;6.73;;
5137;SDS011;53959;53.626;11.410;2023-07-29T02:25:02;8.10;;;7.40;;
5137;SDS011;53959;53.626;11.410;2023-07-29T02:27:28;8.10;;;7.40;;
5137;SDS011;53959;53.626;11.410;2023-07-29T02:29:53;8.03;;;7.30;;
5137;SDS011;53959;53.626;11.410;2023-07-29T02:32:19;10.50;;;7.30;;
5137;SDS011;53959;53.626;11.410;2023-07-29T02:34:45;8.93;;;7.90;;
5137;SDS011;53959;53.626;11.410;2023-07-29T02:37:10;11.80;;;8.40;;
5137;SDS011;53959;53.626;11.410;2023-07-29T02:39:36;7.63;;;7.03;;
5137;SDS011;53959;53.626;11.410;2023-07-29T02:42:02;10.80;;;6.87;;
5137;SDS011;53959;53.626;11.410;2023-07-29T02:44:28;8.30;;;7.40;;
5137;SDS011;53959;53.626;11.410;2023-07-29T02:46:53;7.97;;;7.27;;
5137;SDS011;53959;53.626;11.410;2023-07-29T02:49:21;8.23;;;7.20;;
5137;SDS011;53959;53.626;11.410;2023-07-29T02:51:46;9.20;;;8.40;;
5137;SDS011;53959;53.626;11.410;2023-07-29T02:54:12;7.70;;;7.00;;
5137;SDS011;53959;53.626;11.410;2023-07-29T02:56:37;8.10;;;7.40;;
5137;SDS011;53959;53.626;11.410;2023-07-29T02:59:03;6.90;;;6.37;;
5137;SDS011;53959;53.626;11.410;2023-07-29T03:01:30;7.50;;;6.20;;
5137;SDS011;53959;53.626;11.410;2023-07-29T03:03:55;6.10;;;5.50;;
5137;SDS011;53959;53.626;11.410;2023-07-29T03:06:21;6.40;;;5.90;;
5137;SDS011;53959;53.626;11.410;2023-07-29T03:08:46;11.00;;;6.10;;
5137;SDS011;53959;53.626;11.410;2023-07-29T03:11:13;7.10;;;6.40;;
5137;SDS011;53959;53.626;11.410;2023-07-29T03:13:39;6.63;;;6.13;;
5137;SDS011;53959;53.626;11.410;2023-07-29T03:18:30;7.53;;;6.80;;
5137;SDS011;53959;53.626;11.410;2023-07-29T03:20:56;6.13;;;5.63;;
5137;SDS011;53959;53.626;11.410;2023-07-29T03:23:21;9.80;;;6.30;;
5137;SDS011;53959;53.626;11.410;2023-07-29T03:25:50;6.73;;;6.20;;
5137;SDS011;53959;53.626;11.410;2023-07-29T03:28:21;6.83;;;6.13;;
5137;SDS011;53959;53.626;11.410;2023-07-29T03:30:48;7.00;;;6.40;;
5137;SDS011;53959;53.626;11.410;2023-07-29T03:33:13;7.57;;;6.97;;
5137;SDS011;53959;53.626;11.410;2023-07-29T03:35:39;8.53;;;6.80;;
5137;SDS011;53959;53.626;11.410;2023-07-29T03:38:04;7.37;;;6.73;;
5137;SDS011;53959;53.626;11.410;2023-07-29T03:40:29;6.70;;;6.10;;
5137;SDS011;53959;53.626;11.410;2023-07-29T03:42:55;7.83;;;6.27;;
5137;SDS011;53959;53.626;11.410;2023-07-29T03:45:20;6.40;;;5.80;;
5137;SDS011;53959;53.626;11.410;2023-07-29T03:47:45;10.33;;;7.80;;
5137;SDS011;53959;53.626;11.410;2023-07-29T03:50:11;8.50;;;7.33;;
5137;SDS011;53959;53.626;11.410;2023-07-29T03:52:36;7.60;;;6.90;;
5137;SDS011;53959;53.626;11.410;2023-07-29T03:55:01;11.47;;;7.73;;
5137;SDS011;53959;53.626;11.410;2023-07-29T03:57:27;11.30;;;8.90;;
5137;SDS011;53959;53.626;11.410;2023-07-29T03:59:54;18.60;;;9.20;;
5137;SDS011;53959;53.626;11.410;2023-07-29T04:02:19;12.47;;;9.53;;
5137;SDS011;53959;53.626;11.410;2023-07-29T04:04:45;14.57;;;10.73;;
5137;SDS011;53959;53.626;11.410;2023-07-29T04:07:13;16.50;;;11.27;;
5137;SDS011;53959;53.626;11.410;2023-07-29T04:09:38;18.43;;;12.57;;
5137;SDS011;53959;53.626;11.410;2023-07-29T04:12:04;15.07;;;12.43;;
5137;SDS011;53959;53.626;11.410;2023-07-29T04:14:30;21.23;;;12.80;;
5137;SDS011;53959;53.626;11.410;2023-07-29T04:16:55;15.80;;;11.47;;
5137;SDS011;53959;53.626;11.410;2023-07-29T04:19:21;15.13;;;12.77;;
5137;SDS011;53959;53.626;11.410;2023-07-29T04:21:47;14.63;;;11.60;;
5137;SDS011;53959;53.626;11.410;2023-07-29T04:24:12;18.63;;;10.70;;
5137;SDS011;53959;53.626;11.410;2023-07-29T04:26:38;15.30;;;11.57;;
5137;SDS011;53959;53.626;11.410;2023-07-29T04:29:04;12.33;;;10.83;;
5137;SDS011;53959;53.626;11.410;2023-07-29T04:31:29;13.80;;;10.57;;
5137;SDS011;53959;53.626;11.410;2023-07-29T04:33:55;12.43;;;9.83;;
5137;SDS011;53959;53.626;11.410;2023-07-29T04:36:20;15.90;;;10.27;;
5137;SDS011;53959;53.626;11.410;2023-07-29T04:38:45;15.03;;;10.10;;
5137;SDS011;53959;53.626;11.410;2023-07-29T04:41:11;13.50;;;10.00;;
5137;SDS011;53959;53.626;11.410;2023-07-29T04:43:36;12.83;;;9.87;;
5137;SDS011;53959;53.626;11.410;2023-07-29T04:46:02;17.33;;;10.47;;
5137;SDS011;53959;53.626;11.410;2023-07-29T04:48:27;12.10;;;10.77;;
5137;SDS011;53959;53.626;11.410;2023-07-29T04:50:53;14.03;;;9.80;;
5137;SDS011;53959;53.626;11.410;2023-07-29T04:53:18;11.07;;;9.30;;
5137;SDS011;53959;53.626;11.410;2023-07-29T04:55:45;16.90;;;10.27;;
5137;SDS011;53959;53.626;11.410;2023-07-29T04:58:10;11.17;;;10.00;;
5137;SDS011;53959;53.626;11.410;2023-07-29T05:00:36;10.10;;;8.97;;
5137;SDS011;53959;53.626;11.410;2023-07-29T05:03:02;10.57;;;9.40;;
5137;SDS011;53959;53.626;11.410;2023-07-29T05:05:27;10.23;;;8.30;;
5137;SDS011;53959;53.626;11.410;2023-07-29T05:07:53;10.53;;;8.73;;
5137;SDS011;53959;53.626;11.410;2023-07-29T05:10:18;11.40;;;9.87;;
5137;SDS011;53959;53.626;11.410;2023-07-29T05:12:44;12.03;;;9.10;;
5137;SDS011;53959;53.626;11.410;2023-07-29T05:15:10;9.67;;;8.10;;
5137;SDS011;53959;53.626;11.410;2023-07-29T05:17:35;12.53;;;8.40;;
5137;SDS011;53959;53.626;11.410;2023-07-29T05:20:00;8.40;;;7.60;;
5137;SDS011;53959;53.626;11.410;2023-07-29T05:22:26;10.03;;;8.40;;
5137;SDS011;53959;53.626;11.410;2023-07-29T05:24:51;9.53;;;8.53;;
5137;SDS011;53959;53.626;11.410;2023-07-29T05:27:16;10.40;;;8.70;;
5137;SDS011;53959;53.626;11.410;2023-07-29T05:29:42;10.20;;;8.23;;
5137;SDS011;53959;53.626;11.410;2023-07-29T05:32:07;8.50;;;7.70;;
5137;SDS011;53959;53.626;11.410;2023-07-29T05:34:33;11.07;;;8.53;;
5137;SDS011;53959;53.626;11.410;2023-07-29T05:36:58;10.33;;;8.57;;
5137;SDS011;53959;53.626;11.410;2023-07-29T05:39:23;11.30;;;8.57;;
5137;SDS011;53959;53.626;11.410;2023-07-29T05:41:49;10.23;;;9.17;;
5137;SDS011;53959;53.626;11.410;2023-07-29T05:44:14;11.03;;;9.60;;
5137;SDS011;53959;53.626;11.410;2023-07-29T05:46:40;9.17;;;8.27;;
5137;SDS011;53959;53.626;11.410;2023-07-29T05:49:06;12.90;;;9.30;;
5137;SDS011;53959;53.626;11.410;2023-07-29T05:51:31;13.20;;;10.10;;
5137;SDS011;53959;53.626;11.410;2023-07-29T05:53:57;17.83;;;9.13;;
5137;SDS011;53959;53.626;11.410;2023-07-29T05:56:22;17.47;;;11.87;;
5137;SDS011;53959;53.626;11.410;2023-07-29T05:58:47;13.00;;;9.40;;
5137;SDS011;53959;53.626;11.410;2023-07-29T06:01:13;13.30;;;10.03;;
5137;SDS011;53959;53.626;11.410;2023-07-29T06:03:38;16.03;;;11.43;;
5137;SDS011;53959;53.626;11.410;2023-07-29T06:06:03;14.30;;;10.80;;
5137;SDS011;53959;53.626;11.410;2023-07-29T06:08:29;13.93;;;12.20;;
5137;SDS011;53959;53.626;11.410;2023-07-29T06:10:54;18.23;;;11.90;;
5137;SDS011;53959;53.626;11.410;2023-07-29T06:13:20;15.27;;;12.97;;
5137;SDS011;53959;53.626;11.410;2023-07-29T06:15:45;16.07;;;14.10;;
5137;SDS011;53959;53.626;11.410;2023-07-29T06:18:10;17.70;;;14.07;;
5137;SDS011;53959;53.626;11.410;2023-07-29T06:20:37;19.43;;;15.60;;
5137;SDS011;53959;53.626;11.410;2023-07-29T06:23:02;22.27;;;16.20;;
5137;SDS011;53959;53.626;11.410;2023-07-29T06:25:27;20.33;;;16.07;;
5137;SDS011;53959;53.626;11.410;2023-07-29T06:27:53;18.70;;;14.90;;
5137;SDS011;53959;53.626;11.410;2023-07-29T06:30:18;21.57;;;16.83;;
5137;SDS011;53959;53.626;11.410;2023-07-29T06:32:43;19.50;;;15.27;;
5137;SDS011;53959;53.626;11.410;2023-07-29T06:35:09;20.00;;;15.63;;
5137;SDS011;53959;53.626;11.410;2023-07-29T06:37:34;24.90;;;17.00;;
5137;SDS011;53959;53.626;11.410;2023-07-29T06:39:59;20.67;;;16.30;;
5137;SDS011;53959;53.626;11.410;2023-07-29T06:42:25;22.20;;;15.77;;
5137;SDS011;53959;53.626;11.410;2023-07-29T06:44:50;19.70;;;15.10;;
5137;SDS011;53959;53.626;11.410;2023-07-29T06:47:15;21.53;;;15.80;;
5137;SDS011;53959;53.626;11.410;2023-07-29T06:49:41;16.10;;;13.40;;
5137;SDS011;53959;53.626;11.410;2023-07-29T06:52:06;16.53;;;13.90;;
5137;SDS011;53959;53.626;11.410;2023-07-29T06:54:32;22.60;;;15.23;;
5137;SDS011;53959;53.626;11.410;2023-07-29T06:56:57;18.00;;;13.70;;
5137;SDS011;53959;53.626;11.410;2023-07-29T06:59:23;19.70;;;14.47;;
5137;SDS011;53959;53.626;11.410;2023-07-29T07:01:49;19.30;;;13.80;;
5137;SDS011;53959;53.626;11.410;2023-07-29T07:04:15;17.70;;;14.70;;
5137;SDS011;53959;53.626;11.410;2023-07-29T07:06:40;22.63;;;14.67;;
5137;SDS011;53959;53.626;11.410;2023-07-29T07:09:05;15.30;;;12.90;;
5137;SDS011;53959;53.626;11.410;2023-07-29T07:11:31;23.20;;;14.37;;
5137;SDS011;53959;53.626;11.410;2023-07-29T07:13:56;17.10;;;13.60;;
5137;SDS011;53959;53.626;11.410;2023-07-29T07:16:21;17.00;;;12.90;;
5137;SDS011;53959;53.626;11.410;2023-07-29T07:18:47;20.03;;;13.87;;
5137;SDS011;53959;53.626;11.410;2023-07-29T07:21:12;14.83;;;12.43;;
5137;SDS011;53959;53.626;11.410;2023-07-29T07:23:38;17.40;;;12.23;;
5137;SDS011;53959;53.626;11.410;2023-07-29T07:26:04;17.70;;;13.50;;
5137;SDS011;53959;53.626;11.410;2023-07-29T07:28:29;15.70;;;12.67;;
5137;SDS011;53959;53.626;11.410;2023-07-29T07:30:55;15.33;;;13.07;;
5137;SDS011;53959;53.626;11.410;2023-07-29T07:33:21;13.40;;;12.03;;
5137;SDS011;53959;53.626;11.410;2023-07-29T07:35:46;16.07;;;12.40;;
5137;SDS011;53959;53.626;11.410;2023-07-29T07:38:12;18.17;;;11.60;;
5137;SDS011;53959;53.626;11.410;2023-07-29T07:40:37;15.10;;;11.30;;
5137;SDS011;53959;53.626;11.410;2023-07-29T07:43:03;14.60;;;11.23;;
5137;SDS011;53959;53.626;11.410;2023-07-29T07:45:28;12.60;;;11.30;;
5137;SDS011;53959;53.626;11.410;2023-07-29T07:47:53;13.60;;;10.50;;
5137;SDS011;53959;53.626;11.410;2023-07-29T07:50:19;12.07;;;9.60;;
5137;SDS011;53959;53.626;11.410;2023-07-29T07:52:45;16.13;;;11.50;;
5137;SDS011;53959;53.626;11.410;2023-07-29T07:55:10;16.43;;;10.57;;
5137;SDS011;53959;53.626;11.410;2023-07-29T07:57:35;13.23;;;9.77;;
5137;SDS011;53959;53.626;11.410;2023-07-29T08:00:01;9.40;;;8.00;;
5137;SDS011;53959;53.626;11.410;2023-07-29T08:02:26;14.33;;;8.27;;
5137;SDS011;53959;53.626;11.410;2023-07-29T08:04:51;9.23;;;8.23;;
5137;SDS011;53959;53.626;11.410;2023-07-29T08:07:17;13.27;;;9.40;;
5137;SDS011;53959;53.626;11.410;2023-07-29T08:09:42;10.50;;;8.80;;
5137;SDS011;53959;53.626;11.410;2023-07-29T08:12:07;9.73;;;7.73;;
5137;SDS011;53959;53.626;11.410;2023-07-29T08:14:33;11.43;;;9.20;;
5137;SDS011;53959;53.626;11.410;2023-07-29T08:16:58;7.43;;;6.70;;
5137;SDS011;53959;53.626;11.410;2023-07-29T08:19:24;9.13;;;7.67;;
5137;SDS011;53959;53.626;11.410;2023-07-29T08:21:49;8.70;;;7.23;;
5137;SDS011;53959;53.626;11.410;2023-07-29T08:24:14;9.50;;;7.00;;
5137;SDS011;53959;53.626;11.410;2023-07-29T08:26:40;8.97;;;7.63;;
5137;SDS011;53959;53.626;11.410;2023-07-29T08:29:05;10.70;;;8.00;;
5137;SDS011;53959;53.626;11.410;2023-07-29T08:31:30;9.03;;;7.57;;
5137;SDS011;53959;53.626;11.410;2023-07-29T08:33:58;8.80;;;7.70;;
5137;SDS011;53959;53.626;11.410;2023-07-29T08:36:24;8.37;;;7.43;;
5137;SDS011;53959;53.626;11.410;2023-07-29T08:38:49;8.03;;;7.17;;
5137;SDS011;53959;53.626;11.410;2023-07-29T08:44:24;9.20;;;8.20;;
5137;SDS011;53959;53.626;11.410;2023-07-29T08:46:55;9.40;;;8.40;;
5137;SDS011;53959;53.626;11.410;2023-07-29T08:49:22;16.57;;;8.17;;
5137;SDS011;53959;53.626;11.410;2023-07-29T08:51:49;7.00;;;6.30;;
5137;SDS011;53959;53.626;11.410;2023-07-29T08:54:18;7.93;;;6.80;;
5137;SDS011;53959;53.626;11.410;2023-07-29T08:56:43;8.47;;;7.60;;
5137;SDS011;53959;53.626;11.410;2023-07-29T08:59:10;7.03;;;6.43;;
5137;SDS011;53959;53.626;11.410;2023-07-29T09:01:40;7.70;;;6.90;;
5137;SDS011;53959;53.626;11.410;2023-07-29T09:04:06;7.83;;;6.63;;
5137;SDS011;53959;53.626;11.410;2023-07-29T09:06:32;7.33;;;6.33;;
5137;SDS011;53959;53.626;11.410;2023-07-29T09:08:58;9.13;;;6.50;;
5137;SDS011;53959;53.626;11.410;2023-07-29T09:11:27;10.33;;;6.23;;
5137;SDS011;53959;53.626;11.410;2023-07-29T09:13:53;8.47;;;5.63;;
5137;SDS011;53959;53.626;11.410;2023-07-29T09:16:19;7.30;;;6.37;;
5137;SDS011;53959;53.626;11.410;2023-07-29T09:18:47;6.70;;;6.17;;
5137;SDS011;53959;53.626;11.410;2023-07-29T09:21:13;8.73;;;6.30;;
5137;SDS011;53959;53.626;11.410;2023-07-29T09:23:41;6.70;;;5.30;;
5137;SDS011;53959;53.626;11.410;2023-07-29T09:26:07;7.00;;;6.20;;
5137;SDS011;53959;53.626;11.410;2023-07-29T09:28:36;8.33;;;6.43;;
5137;SDS011;53959;53.626;11.410;2023-07-29T09:31:04;10.00;;;7.20;;
5137;SDS011;53959;53.626;11.410;2023-07-29T09:33:32;5.87;;;5.30;;
5137;SDS011;53959;53.626;11.410;2023-07-29T09:36:01;11.20;;;6.33;;
5137;SDS011;53959;53.626;11.410;2023-07-29T09:38:28;8.87;;;6.57;;
5137;SDS011;53959;53.626;11.410;2023-07-29T09:40:56;8.37;;;5.37;;
5137;SDS011;53959;53.626;11.410;2023-07-29T09:43:28;11.30;;;5.10;;
5137;SDS011;53959;53.626;11.410;2023-07-29T09:45:55;7.70;;;4.97;;
5137;SDS011;53959;53.626;11.410;2023-07-29T09:48:24;4.37;;;3.97;;
5137;SDS011;53959;53.626;11.410;2023-07-29T09:50:50;3.67;;;3.47;;
5137;SDS011;53959;53.626;11.410;2023-07-29T09:53:15;5.20;;;3.30;;
5137;SDS011;53959;53.626;11.410;2023-07-29T09:55:45;14.80;;;3.90;;
5137;SDS011;53959;53.626;11.410;2023-07-29T09:58:13;4.50;;;4.10;;
5137;SDS011;53959;53.626;11.410;2023-07-29T10:00:39;8.47;;;3.83;;
5137;SDS011;53959;53.626;11.410;2023-07-29T10:03:05;4.70;;;4.30;;
5137;SDS011;53959;53.626;11.410;2023-07-29T10:05:31;3.53;;;3.37;;
5137;SDS011;53959;53.626;11.410;2023-07-29T10:07:59;3.83;;;3.53;;
5137;SDS011;53959;53.626;11.410;2023-07-29T10:10:26;3.33;;;3.13;;
5137;SDS011;53959;53.626;11.410;2023-07-29T10:12:53;8.90;;;3.80;;
5137;SDS011;53959;53.626;11.410;2023-07-29T10:15:19;4.23;;;3.37;;
5137;SDS011;53959;53.626;11.410;2023-07-29T10:17:46;3.70;;;3.50;;
5137;SDS011;53959;53.626;11.410;2023-07-29T10:20:11;4.53;;;4.10;;
5137;SDS011;53959;53.626;11.410;2023-07-29T10:22:40;4.30;;;3.97;;
5137;SDS011;53959;53.626;11.410;2023-07-29T10:25:07;5.00;;;4.60;;
5137;SDS011;53959;53.626;11.410;2023-07-29T10:27:45;7.90;;;4.53;;
5137;SDS011;53959;53.626;11.410;2023-07-29T10:30:13;4.03;;;3.63;;
5137;SDS011;53959;53.626;11.410;2023-07-29T10:32:39;4.30;;;3.57;;
5137;SDS011;53959;53.626;11.410;2023-07-29T10:35:10;4.20;;;3.00;;
5137;SDS011;53959;53.626;11.410;2023-07-29T10:37:36;9.60;;;4.17;;
5137;SDS011;53959;53.626;11.410;2023-07-29T10:40:05;4.10;;;3.70;;
5137;SDS011;53959;53.626;11.410;2023-07-29T10:42:32;9.20;;;4.13;;
5137;SDS011;53959;53.626;11.410;2023-07-29T10:44:57;11.03;;;3.83;;
5137;SDS011;53959;53.626;11.410;2023-07-29T10:47:26;3.93;;;3.63;;
5137;SDS011;53959;53.626;11.410;2023-07-29T10:49:57;4.40;;;4.10;;
5137;SDS011;53959;53.626;11.410;2023-07-29T10:52:30;5.23;;;4.90;;
5137;SDS011;53959;53.626;11.410;2023-07-29T10:55:26;5.63;;;5.17;;
5137;SDS011;53959;53.626;11.410;2023-07-29T10:58:03;4.40;;;4.20;;
5137;SDS011;53959;53.626;11.410;2023-07-29T11:00:30;5.13;;;4.70;;
5137;SDS011;53959;53.626;11.410;2023-07-29T11:03:01;6.97;;;5.30;;
5137;SDS011;53959;53.626;11.410;2023-07-29T11:05:46;7.53;;;6.47;;
5137;SDS011;53959;53.626;11.410;2023-07-29T11:08:18;12.27;;;6.50;;
5137;SDS011;53959;53.626;11.410;2023-07-29T11:10:45;6.63;;;5.93;;
5137;SDS011;53959;53.626;11.410;2023-07-29T11:13:22;8.23;;;5.07;;
5137;SDS011;53959;53.626;11.410;2023-07-29T11:15:48;10.03;;;7.23;;
5137;SDS011;53959;53.626;11.410;2023-07-29T11:18:15;5.43;;;4.93;;
5137;SDS011;53959;53.626;11.410;2023-07-29T11:20:41;6.07;;;5.47;;
5137;SDS011;53959;53.626;11.410;2023-07-29T11:23:07;11.67;;;6.17;;
5137;SDS011;53959;53.626;11.410;2023-07-29T11:25:32;8.80;;;6.37;;
5137;SDS011;53959;53.626;11.410;2023-07-29T11:27:59;7.20;;;6.50;;
5137;SDS011;53959;53.626;11.410;2023-07-29T11:30:25;6.37;;;5.70;;
5137;SDS011;53959;53.626;11.410;2023-07-29T11:32:55;6.93;;;6.33;;
5137;SDS011;53959;53.626;11.410;2023-07-29T11:35:21;10.00;;;6.57;;
5137;SDS011;53959;53.626;11.410;2023-07-29T11:37:47;7.10;;;6.07;;
5137;SDS011;53959;53.626;11.410;2023-07-29T11:40:17;8.20;;;6.63;;
5137;SDS011;53959;53.626;11.410;2023-07-29T11:42:44;6.83;;;6.20;;
5137;SDS011;53959;53.626;11.410;2023-07-29T11:45:12;10.37;;;6.50;;
5137;SDS011;53959;53.626;11.410;2023-07-29T11:47:39;7.13;;;6.40;;
5137;SDS011;53959;53.626;11.410;2023-07-29T11:50:09;7.40;;;6.70;;
5137;SDS011;53959;53.626;11.410;2023-07-29T11:52:45;7.13;;;6.40;;
5137;SDS011;53959;53.626;11.410;2023-07-29T11:55:12;8.73;;;7.07;;
5137;SDS011;53959;53.626;11.410;2023-07-29T11:57:39;8.43;;;7.73;;
5137;SDS011;53959;53.626;11.410;2023-07-29T12:00:06;8.10;;;7.30;;
5137;SDS011;53959;53.626;11.410;2023-07-29T12:02:36;10.27;;;7.07;;
5137;SDS011;53959;53.626;11.410;2023-07-29T12:05:03;9.70;;;7.60;;
5137;SDS011;53959;53.626;11.410;2023-07-29T12:07:29;8.37;;;7.20;;
5137;SDS011;53959;53.626;11.410;2023-07-29T12:09:55;10.93;;;7.80;;
5137;SDS011;53959;53.626;11.410;2023-07-29T12:12:22;11.43;;;7.40;;
5137;SDS011;53959;53.626;11.410;2023-07-29T12:14:48;7.70;;;6.90;;
5137;SDS011;53959;53.626;11.410;2023-07-29T12:17:14;7.83;;;6.60;;
5137;SDS011;53959;53.626;11.410;2023-07-29T12:19:40;6.87;;;6.10;;
5137;SDS011;53959;53.626;11.410;2023-07-29T12:22:08;6.33;;;5.73;;
5137;SDS011;53959;53.626;11.410;2023-07-29T12:24:35;7.23;;;6.50;;
5137;SDS011;53959;53.626;11.410;2023-07-29T12:27:03;6.90;;;5.67;;
5137;SDS011;53959;53.626;11.410;2023-07-29T12:29:28;5.50;;;4.93;;
5137;SDS011;53959;53.626;11.410;2023-07-29T12:32:00;5.40;;;5.00;;
5137;SDS011;53959;53.626;11.410;2023-07-29T12:34:27;5.17;;;4.77;;
5137;SDS011;53959;53.626;11.410;2023-07-29T12:36:54;5.50;;;4.17;;
5137;SDS011;53959;53.626;11.410;2023-07-29T12:39:22;4.43;;;4.03;;
5137;SDS011;53959;53.626;11.410;2023-07-29T12:41:52;4.20;;;3.80;;
5137;SDS011;53959;53.626;11.410;2023-07-29T12:44:19;5.00;;;4.60;;
5137;SDS011;53959;53.626;11.410;2023-07-29T12:46:45;5.40;;;4.90;;
5137;SDS011;53959;53.626;11.410;2023-07-29T12:49:11;6.40;;;5.90;;
5137;SDS011;53959;53.626;11.410;2023-07-29T12:51:36;5.70;;;5.20;;
5137;SDS011;53959;53.626;11.410;2023-07-29T12:54:05;5.97;;;5.47;;
5137;SDS011;53959;53.626;11.410;2023-07-29T12:56:30;7.47;;;6.73;;
5137;SDS011;53959;53.626;11.410;2023-07-29T12:58:57;6.20;;;5.70;;
5137;SDS011;53959;53.626;11.410;2023-07-29T13:01:23;6.60;;;6.00;;
5137;SDS011;53959;53.626;11.410;2023-07-29T13:03:49;7.20;;;6.20;;
5137;SDS011;53959;53.626;11.410;2023-07-29T13:06:14;8.97;;;6.47;;
5137;SDS011;53959;53.626;11.410;2023-07-29T13:08:41;11.23;;;5.60;;
5137;SDS011;53959;53.626;11.410;2023-07-29T13:11:07;6.90;;;5.80;;
5137;SDS011;53959;53.626;11.410;2023-07-29T13:13:32;6.23;;;5.73;;
5137;SDS011;53959;53.626;11.410;2023-07-29T13:15:58;9.23;;;5.90;;
5137;SDS011;53959;53.626;11.410;2023-07-29T13:18:23;4.70;;;4.40;;
5137;SDS011;53959;53.626;11.410;2023-07-29T13:20:49;3.80;;;3.63;;
5137;SDS011;53959;53.626;11.410;2023-07-29T13:23:14;5.03;;;4.40;;
5137;SDS011;53959;53.626;11.410;2023-07-29T13:25:40;4.23;;;3.93;;
5137;SDS011;53959;53.626;11.410;2023-07-29T13:28:06;4.23;;;4.03;;
5137;SDS011;53959;53.626;11.410;2023-07-29T13:30:32;4.97;;;4.57;;
5137;SDS011;53959;53.626;11.410;2023-07-29T13:32:58;5.10;;;4.33;;
5137;SDS011;53959;53.626;11.410;2023-07-29T13:35:23;4.53;;;4.20;;
5137;SDS011;53959;53.626;11.410;2023-07-29T13:37:48;5.70;;;5.17;;
5137;SDS011;53959;53.626;11.410;2023-07-29T13:40:14;4.20;;;3.90;;
5137;SDS011;53959;53.626;11.410;2023-07-29T13:42:39;4.70;;;4.30;;
5137;SDS011;53959;53.626;11.410;2023-07-29T13:45:05;5.00;;;4.70;;
5137;SDS011;53959;53.626;11.410;2023-07-29T13:47:30;7.63;;;4.40;;
5137;SDS011;53959;53.626;11.410;2023-07-29T13:49:56;5.53;;;5.13;;
5137;SDS011;53959;53.626;11.410;2023-07-29T13:52:21;4.40;;;4.10;;
5137;SDS011;53959;53.626;11.410;2023-07-29T13:54:46;5.50;;;4.50;;
5137;SDS011;53959;53.626;11.410;2023-07-29T13:57:12;4.40;;;4.10;;
5137;SDS011;53959;53.626;11.410;2023-07-29T13:59:37;5.57;;;5.07;;
5137;SDS011;53959;53.626;11.410;2023-07-29T14:02:05;6.07;;;5.57;;
5137;SDS011;53959;53.626;11.410;2023-07-29T14:04:31;6.97;;;6.37;;
5137;SDS011;53959;53.626;11.410;2023-07-29T14:06:57;5.37;;;4.93;;
5137;SDS011;53959;53.626;11.410;2023-07-29T14:09:23;6.47;;;5.87;;
5137;SDS011;53959;53.626;11.410;2023-07-29T14:11:49;6.67;;;6.07;;
5137;SDS011;53959;53.626;11.410;2023-07-29T14:14:14;5.53;;;5.03;;
5137;SDS011;53959;53.626;11.410;2023-07-29T14:16:40;5.97;;;5.50;;
5137;SDS011;53959;53.626;11.410;2023-07-29T14:19:05;5.63;;;5.23;;
5137;SDS011;53959;53.626;11.410;2023-07-29T14:21:30;5.40;;;5.00;;
5137;SDS011;53959;53.626;11.410;2023-07-29T14:23:56;12.07;;;6.00;;
5137;SDS011;53959;53.626;11.410;2023-07-29T14:26:21;6.43;;;5.40;;
5137;SDS011;53959;53.626;11.410;2023-07-29T14:28:46;7.50;;;5.43;;
5137;SDS011;53959;53.626;11.410;2023-07-29T14:31:12;7.60;;;6.60;;
5137;SDS011;53959;53.626;11.410;2023-07-29T14:33:38;16.20;;;7.63;;
5137;SDS011;53959;53.626;11.410;2023-07-29T14:36:03;18.50;;;6.43;;
5137;SDS011;53959;53.626;11.410;2023-07-29T14:38:29;7.10;;;6.40;;
5137;SDS011;53959;53.626;11.410;2023-07-29T14:40:55;7.43;;;6.50;;
5137;SDS011;53959;53.626;11.410;2023-07-29T14:43:21;11.80;;;7.33;;
5137;SDS011;53959;53.626;11.410;2023-07-29T14:45:48;24.73;;;10.37;;
5137;SDS011;53959;53.626;11.410;2023-07-29T14:48:13;6.97;;;6.10;;